x

La Perouse Bank (46206) Wave Buoy

3:00pm - Fri 6th May 2016 All times are PDT. -7 hours from GMT.

  • Sig Wave height 5.6ft
  • Peak Period 7s
  • Wind
    18mph, 22mph gusts
  • Sea Temp 54°f
  • 空気 Temp 55°f
  • Sea Pressure 1019.1mb
  • La Perouse Bank
  • La Perouse Bank

More Historic Weather Station data

Upgrade to MSW Pro to gain access to the past 30 days of data for over 8000 Wavebouys and Weather Stations around the globe.

Join Pro

Comparision Forecast

View Surf forecast
   
Fri 05/06 3:00pm 5.5ft 7s 18 22 mph 1019.1mb 54f 55f
2:00pm 5.5ft 8s 16 20 mph 1019.3mb 54f 55f
1:00pm 5ft 8s 16 18 mph 1019.7mb 54f 55f
12:00pm 5ft 8s 13 16 mph 1020.2mb 54f 55f
11:00am 5ft 8s 9 11 mph 1020.3mb 54f 55f
10:00am 5.5ft 8s 11 13 mph 1020.5mb 53f 55f
9:00am 6ft 8s 11 13 mph 1020.5mb 53f 54f
8:00am 5.5ft 8s 11 13 mph 1020.4mb 53f 54f
7:00am 6ft 8s 11 13 mph 1020.3mb 53f 54f
6:00am 5.5ft 8s 9 11 mph 1020.2mb 53f 54f
5:00am 6ft 8s 9 11 mph 1020mb 53f 54f
4:00am 6ft 8s 13
mph
1020.1mb 53f 54f
3:00am 5.5ft 9s 13 16 mph 1019.8mb 53f 55f
2:00am 5ft 8s 11 13 mph 1019.6mb 53f 54f
1:00am 5ft 7s 11 13 mph 1019.3mb 53f 54f
12:00am 5ft 9s 13 16 mph 1019.2mb 53f 54f
Thu 05/05 10:00pm 5ft 8s 13 16 mph 1019.4mb 54f 55f
9:00pm 5ft 9s 9 11 mph 1019.2mb 54f 55f
8:00pm 5ft 8s 11 13 mph 1019mb 54f 55f
7:00pm 5ft 8s 16 18 mph 1018.8mb 54f 55f
6:00pm 5.5ft 8s 13 16 mph 1018.3mb 54f 55f
5:00pm 5ft 8s 13 16 mph 1018.1mb 54f 55f
4:00pm 5ft 9s 11 13 mph 1018.3mb 54f 55f
3:00pm 5ft 7s 11 13 mph 1018.8mb 54f 54f
2:00pm 5ft 9s 13 18 mph 1019.2mb 54f 54f
1:00pm 5ft 10s 9 11 mph 1019.2mb 54f 53f
12:00pm 5.5ft 7s 2 4 mph 1019mb 53f 54f
11:00am 6ft 8s 4
mph
1018.8mb 54f 54f
10:00am 6ft 9s 2 4 mph 1018.7mb 53f 54f
9:00am 6.5ft 8s 4 7 mph 1018.4mb 53f 53f
8:00am 6.5ft 8s 4 7 mph 1018mb 53f 53f
7:00am 7ft 8s 9
mph
1017.8mb 53f 53f
6:00am 7ft 8s 13 16 mph 1017.6mb 53f 53f
5:00am 7ft 9s 16 18 mph 1017.6mb 53f 53f
4:00am 7ft 10s 18 20 mph 1017.2mb 53f 53f
3:00am 7.5ft 8s 18 22 mph 1017mb 53f 53f
12:00am 8.5ft 8s 18 22 mph 1016.4mb 53f 54f
Wed 05/04 11:00pm 9.5ft 8s 20 25 mph 1016.2mb 53f 54f
10:00pm 9ft 8s 20 27 mph 1016.5mb 53f 53f
9:00pm 9.5ft 7s 22 29 mph 1016.3mb 53f 53f
8:00pm 9ft 7s 25 29 mph 1016.4mb 53f 53f
7:00pm 8ft 7s 25 31 mph 1016.7mb 53f 53f
6:00pm 8.5ft 7s 27 31 mph 1017.1mb 53f 53f
5:00pm 8ft 7s 22 29 mph 1017.4mb 53f 53f
4:00pm 8ft 7s 22 27 mph 1017.8mb 53f 53f
3:00pm 7ft 7s 25 29 mph 1018.2mb 53f 52f
2:00pm 7ft 6s 22 27 mph 1018.3mb 53f 52f
1:00pm 7ft 7s 22 27 mph 1018.8mb 53f 51f
12:00pm 7ft 6s 22 27 mph 1019.1mb 53f 51f
11:00am 7ft 6s 20 27 mph 1019.3mb 53f 51f
10:00am 7ft 6s 22 27 mph 1019.1mb 53f 51f
9:00am 7.5ft 6s 22 27 mph 1019.4mb 53f 50f
8:00am 8ft 7s 25 29 mph 1019.5mb 53f 51f
7:00am 8ft 6s 25 31 mph 1019.6mb 53f 51f
6:00am 8ft 6s 25 31 mph 1020mb 53f 51f
5:00am 8ft 6s 25 31 mph 1019.9mb 53f 51f
4:00am 8ft 5s 25 31 mph 1020.3mb 53f 51f
3:00am  -   -  27
mph
1020.5mb - 51f
2:00am 7.5ft 6s 25 29 mph 1020.6mb 54f 52f
1:00am 7ft 10s 25 29 mph 1021mb 54f 51f
12:00am 6.5ft 11s 22 29 mph 1021.3mb 54f 52f
Tue 05/03 11:00pm 6ft 10s 22 27 mph 1021.6mb 54f 52f
10:00pm 6ft 10s 22 27 mph 1021.4mb 54f 52f
9:00pm 6ft 11s 22 25 mph 1021.3mb 54f 52f
8:00pm 6ft 11s 18 22 mph 1021mb 54f 52f
7:00pm 6ft 10s 18 22 mph 1020.6mb 54f 52f
6:00pm 6ft 11s 18 22 mph 1020.7mb 54f 52f
5:00pm 6ft 11s 18 20 mph 1020.6mb 54f 52f
4:00pm 6ft 11s 16 18 mph 1020.8mb 54f 52f
3:00pm 6ft 11s 16 18 mph 1020.5mb 54f 52f
2:00pm 6ft 10s 18 20 mph 1020mb 54f 53f
1:00pm 6ft 12s 18 20 mph 1019.6mb 54f 53f
12:00pm 7ft 11s 16 20 mph 1019.2mb 54f 53f
11:00am 7ft 12s 13 18 mph 1018.8mb 54f 53f
10:00am 7ft 11s 13 18 mph 1018.4mb 54f 53f
9:00am 7ft 12s 16 18 mph 1018.2mb 54f 53f
8:00am 6.5ft 9s 13 18 mph 1017.8mb 54f 53f
7:00am 7ft 12s 11 13 mph 1017.7mb 54f 53f
6:00am 6.5ft 12s 7 9 mph 1017.1mb 54f 53f
5:00am 7ft 14s 7 9 mph 1017.2mb 54f 53f
4:00am 7.5ft 11s 9
mph
1017mb 54f 53f
3:00am 7.5ft 11s 11 13 mph 1016.6mb 54f 53f
2:00am 7.5ft 11s 16 18 mph 1016.3mb 54f 53f
1:00am 7ft 13s 18 22 mph 1016.1mb 54f 53f
12:00am 7ft 11s 18 20 mph 1015.8mb 54f 54f